Time;durP1;ratioP1;P1;durP2;ratioP2;P2;SDS_P1;SDS_P2;PMS_P1;PMS_P2;Temp;Humidity;BMP_temperature;BMP_pressure;BME280_temperature;BME280_humidity;BME280_pressure;Samples;Min_cycle;Max_cycle;Signal;HPM_P1;HPM_P2
2023/09/13 00:01:37;;;;;;;;;;;;;;;;;;5001384;28;1248;-59
2023/09/13 00:04:02;;;;;;;;;;;;;;;;;;5006618;28;4612;-59
2023/09/13 00:06:28;;;;;;;;;;;;;;;;;;5007154;28;4982;-58
2023/09/13 00:08:53;;;;;;;;;;;;;;;;;;5007833;28;4680;-58
2023/09/13 00:11:18;;;;;;;;;;;;;;;;;;5005304;28;5054;-58
2023/09/13 00:13:44;;;;;;;;;;;;;;;;;;5006417;28;3565;-58
2023/09/13 00:16:10;;;;;;;;;;;;;;;;;;5007537;28;5373;-59
2023/09/13 00:18:36;;;;;;;;;;;;;;;;;;5004742;28;5101;-58
2023/09/13 00:21:01;;;;;;;;;;;;;;;;;;5001465;28;5048;-58
2023/09/13 00:23:26;;;;;;;;;;;;;;;;;;5008691;28;4651;-58
2023/09/13 00:25:52;;;;;;;;;;;;;;;;;;5008629;28;5155;-57
2023/09/13 00:28:17;;;;;;;;;;;;;;;;;;5002582;28;3348;-57
2023/09/13 00:30:42;;;;;;;;;;;;;;;;;;5006444;28;4940;-58
2023/09/13 00:33:07;;;;;;;;;;;;;;;;;;5008155;28;5093;-59
2023/09/13 00:35:33;;;;;;;;;;;;;;;;;;5005532;28;5052;-59
2023/09/13 00:37:58;;;;;;;;;;;;;;;;;;5023946;28;4937;-58
2023/09/13 00:40:23;;;;;;;;;;;;;;;;;;5007688;28;3341;-59
2023/09/13 00:42:49;;;;;;;;;;;;;;;;;;5003864;28;4503;-58
2023/09/13 00:45:14;;;;;;;;;;;;;;;;;;5004988;28;6058;-58
2023/09/13 00:47:40;;;;;;;;;;;;;;;;;;5006139;28;5086;-58
2023/09/13 00:50:06;;;;;;;;;;;;;;;;;;5020355;28;5068;-58
2023/09/13 00:52:32;;;;;;;;;;;;;;;;;;5011974;28;3353;-58
2023/09/13 00:54:57;;;;;;;;;;;;;;;;;;5004813;28;4540;-59
2023/09/13 00:57:22;;;;;;;;;;;;;;;;;;5005675;28;4493;-57
2023/09/13 00:59:48;;;;;;;;;;;;;;;;;;5007531;28;5760;-58
2023/09/13 01:02:13;;;;;;;;;;;;;;;;;;5005553;28;5114;-58
2023/09/13 01:04:38;;;;;;;;;;;;;;;;;;5005492;28;3368;-58
2023/09/13 01:07:04;;;;;;;;;;;;;;;;;;4988699;28;5098;-59
2023/09/13 01:09:29;;;;;;;;;;;;;;;;;;5005212;28;5094;-58
2023/09/13 01:11:54;;;;;;;;;;;;;;;;;;5000479;28;4639;-57
2023/09/13 01:14:21;;;;;;;;;;;;;;;;;;5006421;28;4996;-58
2023/09/13 01:17:10;;;;;;;;;;;;;;;;;;5004636;28;1195;-59
2023/09/13 01:19:44;;;;;;;;;;;;;;;;;;4981773;28;4683;-58
2023/09/13 01:22:28;;;;;;;;;;;;;;;;;;5007194;28;4412;-58
2023/09/13 01:25:06;;;;;;;;;;;;;;;;;;5003443;28;4952;-58
2023/09/13 01:27:31;;;;;;;;;;;;;;;;;;5005849;28;5283;-58
2023/09/13 01:29:57;;;;;;;;;;;;;;;;;;5008005;28;4831;-58
2023/09/13 01:32:22;;;;;;;;;;;;;;;;;;5018653;28;4934;-57
2023/09/13 01:34:47;;;;;;;;;;;;;;;;;;5004033;28;4910;-58
2023/09/13 01:37:13;;;;;;;;;;;;;;;;;;4988772;28;5006;-58
2023/09/13 01:39:38;;;;;;;;;;;;;;;;;;5018640;28;5077;-58
2023/09/13 01:42:05;;;;;;;;;;;;;;;;;;5005946;28;5132;-58
2023/09/13 01:44:30;;;;;;;;;;;;;;;;;;4986340;28;5555;-58
2023/09/13 01:46:55;;;;;;;;;;;;;;;;;;5006881;28;5209;-59
2023/09/13 01:49:20;;;;;;;;;;;;;;;;;;5023748;28;1181;-58
2023/09/13 01:51:46;;;;;;;;;;;;;;;;;;5003689;28;4973;-58
2023/09/13 01:54:12;;;;;;;;;;;;;;;;;;5000070;28;4980;-59
2023/09/13 01:56:37;;;;;;;;;;;;;;;;;;5020324;28;4640;-58
2023/09/13 01:59:02;;;;;;;;;;;;;;;;;;4999767;28;4925;-58
2023/09/13 02:01:29;;;;;;;;;;;;;;;;;;5012317;28;3422;-58
2023/09/13 02:03:54;;;;;;;;;;;;;;;;;;5000433;28;4977;-58
2023/09/13 02:06:20;;;;;;;;;;;;;;;;;;5002468;28;5011;-58
2023/09/13 02:08:45;;;;;;;;;;;;;;;;;;4997498;28;4615;-59
2023/09/13 02:11:10;;;;;;;;;;;;;;;;;;5004133;28;5074;-59
2023/09/13 02:13:36;;;;;;;;;;;;;;;;;;5005564;28;3348;-58
2023/09/13 02:16:01;;;;;;;;;;;;;;;;;;5001773;28;4846;-58
2023/09/13 02:18:26;;;;;;;;;;;;;;;;;;5002134;28;5028;-58
2023/09/13 02:20:52;;;;;;;;;;;;;;;;;;4997498;28;5081;-59
2023/09/13 02:23:17;;;;;;;;;;;;;;;;;;5006154;28;5146;-58
2023/09/13 02:25:45;;;;;;;;;;;;;;;;;;5006017;28;3495;-58
2023/09/13 02:28:11;;;;;;;;;;;;;;;;;;4999075;28;4581;-58
2023/09/13 02:30:36;;;;;;;;;;;;;;;;;;5001223;28;6176;-58
2023/09/13 02:33:02;;;;;;;;;;;;;;;;;;5000989;28;4725;-59
2023/09/13 02:35:27;;;;;;;;;;;;;;;;;;4998305;28;5000;-58
2023/09/13 02:37:52;;;;;;;;;;;;;;;;;;5003440;28;4537;-58
2023/09/13 02:40:17;;;;;;;;;;;;;;;;;;5004957;28;3400;-58
2023/09/13 02:42:43;;;;;;;;;;;;;;;;;;5004736;28;4460;-58
2023/09/13 02:45:08;;;;;;;;;;;;;;;;;;5004252;28;4549;-58
2023/09/13 02:47:33;;;;;;;;;;;;;;;;;;5007610;28;5199;-58
2023/09/13 02:49:59;;;;;;;;;;;;;;;;;;5004967;28;5045;-58
2023/09/13 02:52:31;;;;;;;;;;;;;;;;;;5007902;28;3356;-58
2023/09/13 02:54:56;;;;;;;;;;;;;;;;;;5018582;28;5108;-58
2023/09/13 02:57:22;;;;;;;;;;;;;;;;;;5008931;28;5072;-58
2023/09/13 02:59:47;;;;;;;;;;;;;;;;;;5006527;28;4880;-59
2023/09/13 03:02:12;;;;;;;;;;;;;;;;;;5007866;28;5021;-58
2023/09/13 03:04:38;;;;;;;;;;;;;;;;;;4999909;28;3264;-58
2023/09/13 03:07:03;;;;;;;;;;;;;;;;;;5005589;28;4977;-59
2023/09/13 03:09:28;;;;;;;;;;;;;;;;;;5007872;28;4487;-58
2023/09/13 03:11:53;;;;;;;;;;;;;;;;;;4996439;28;4522;-58
2023/09/13 03:14:19;;;;;;;;;;;;;;;;;;5008021;28;5007;-58
2023/09/13 03:16:44;;;;;;;;;;;;;;;;;;5008911;28;3411;-58
2023/09/13 03:19:10;;;;;;;;;;;;;;;;;;5001573;28;4823;-58
2023/09/13 03:21:35;;;;;;;;;;;;;;;;;;5003308;28;5040;-58
2023/09/13 03:24:01;;;;;;;;;;;;;;;;;;5004051;28;4504;-58
2023/09/13 03:26:26;;;;;;;;;;;;;;;;;;5005483;28;5140;-58
2023/09/13 03:28:53;;;;;;;;;;;;;;;;;;4998447;28;4505;-58
2023/09/13 03:31:18;;;;;;;;;;;;;;;;;;5000704;28;3449;-57
2023/09/13 03:33:44;;;;;;;;;;;;;;;;;;5010644;28;5106;-58
2023/09/13 03:36:09;;;;;;;;;;;;;;;;;;5016990;28;5084;-58
2023/09/13 03:38:37;;;;;;;;;;;;;;;;;;5001330;28;4658;-58
2023/09/13 03:41:03;;;;;;;;;;;;;;;;;;4998076;28;5171;-57
2023/09/13 03:43:28;;;;;;;;;;;;;;;;;;5005093;28;3400;-60
2023/09/13 03:45:54;;;;;;;;;;;;;;;;;;4993341;28;4635;-59
2023/09/13 03:48:19;;;;;;;;;;;;;;;;;;5015872;28;5148;-58
2023/09/13 03:50:44;;;;;;;;;;;;;;;;;;5006213;28;5022;-58
2023/09/13 03:53:09;;;;;;;;;;;;;;;;;;5003165;28;5157;-59
2023/09/13 03:55:35;;;;;;;;;;;;;;;;;;5009130;28;3396;-59
2023/09/13 03:58:00;;;;;;;;;;;;;;;;;;5004211;28;4460;-59
2023/09/13 04:00:25;;;;;;;;;;;;;;;;;;5001310;28;5091;-58
2023/09/13 04:02:50;;;;;;;;;;;;;;;;;;5002727;28;5014;-58
2023/09/13 04:05:16;;;;;;;;;;;;;;;;;;5017895;28;4552;-58
2023/09/13 04:07:41;;;;;;;;;;;;;;;;;;4998122;28;3436;-58
2023/09/13 04:10:06;;;;;;;;;;;;;;;;;;4996110;28;5207;-59
2023/09/13 04:12:32;;;;;;;;;;;;;;;;;;4986973;28;5097;-59
2023/09/13 04:14:57;;;;;;;;;;;;;;;;;;5003299;28;4626;-58
2023/09/13 04:17:22;;;;;;;;;;;;;;;;;;4994993;28;4691;-59
2023/09/13 04:19:48;;;;;;;;;;;;;;;;;;4998413;28;3372;-58
2023/09/13 04:22:16;;;;;;;;;;;;;;;;;;4985584;28;5001;-59
2023/09/13 04:24:42;;;;;;;;;;;;;;;;;;5004363;28;5102;-59
2023/09/13 04:27:07;;;;;;;;;;;;;;;;;;5002519;28;4701;-58
2023/09/13 04:29:33;;;;;;;;;;;;;;;;;;5001571;28;5034;-59
2023/09/13 04:31:58;;;;;;;;;;;;;;;;;;4991132;28;5090;-58
2023/09/13 04:34:25;;;;;;;;;;;;;;;;;;4991485;28;5030;-58
2023/09/13 04:36:50;;;;;;;;;;;;;;;;;;4991135;28;4934;-58
2023/09/13 04:39:15;;;;;;;;;;;;;;;;;;4997302;28;5892;-59
2023/09/13 04:41:41;;;;;;;;;;;;;;;;;;4997271;28;4555;-58
2023/09/13 04:44:06;;;;;;;;;;;;;;;;;;4997419;28;4754;-59
2023/09/13 04:46:31;;;;;;;;;;;;;;;;;;5002565;28;3333;-58
2023/09/13 04:48:57;;;;;;;;;;;;;;;;;;4995015;28;5137;-58
2023/09/13 04:51:22;;;;;;;;;;;;;;;;;;4991852;28;4527;-59
2023/09/13 04:53:47;;;;;;;;;;;;;;;;;;4990877;28;5405;-59
2023/09/13 04:56:12;;;;;;;;;;;;;;;;;;4983491;28;5132;-58
2023/09/13 04:58:38;;;;;;;;;;;;;;;;;;4994867;28;3430;-59
2023/09/13 05:01:03;;;;;;;;;;;;;;;;;;4996676;28;5046;-58
2023/09/13 05:03:28;;;;;;;;;;;;;;;;;;4995087;28;5755;-59
2023/09/13 05:05:54;;;;;;;;;;;;;;;;;;4998939;28;5099;-58
2023/09/13 05:08:20;;;;;;;;;;;;;;;;;;5002265;28;5068;-58
2023/09/13 05:10:45;;;;;;;;;;;;;;;;;;5001060;28;3317;-59
2023/09/13 05:13:11;;;;;;;;;;;;;;;;;;5003165;28;5350;-58
2023/09/13 05:15:43;;;;;;;;;;;;;;;;;;4999856;28;4536;-59
2023/09/13 05:18:08;;;;;;;;;;;;;;;;;;5002759;28;5002;-59
2023/09/13 05:20:34;;;;;;;;;;;;;;;;;;5002336;28;5096;-59
2023/09/13 05:22:59;;;;;;;;;;;;;;;;;;5003433;28;5063;-59
2023/09/13 05:25:24;;;;;;;;;;;;;;;;;;5007406;28;3399;-59
2023/09/13 05:27:49;;;;;;;;;;;;;;;;;;4999003;28;5006;-59
2023/09/13 05:30:15;;;;;;;;;;;;;;;;;;5002886;28;4694;-59
2023/09/13 05:32:40;;;;;;;;;;;;;;;;;;5004424;28;5019;-59
2023/09/13 05:35:05;;;;;;;;;;;;;;;;;;5004881;28;5149;-59
2023/09/13 05:37:31;;;;;;;;;;;;;;;;;;5003171;28;3451;-58
2023/09/13 05:39:58;;;;;;;;;;;;;;;;;;5005108;28;5070;-57
2023/09/13 05:42:23;;;;;;;;;;;;;;;;;;4989250;28;4755;-57
2023/09/13 05:44:48;;;;;;;;;;;;;;;;;;5006223;28;4541;-58
2023/09/13 05:47:13;;;;;;;;;;;;;;;;;;5005051;28;5210;-57
2023/09/13 05:49:39;;;;;;;;;;;;;;;;;;5005084;28;3411;-58
2023/09/13 05:52:04;;;;;;;;;;;;;;;;;;4998893;28;5072;-58
2023/09/13 05:54:29;;;;;;;;;;;;;;;;;;5002259;28;4580;-58
2023/09/13 05:56:56;;;;;;;;;;;;;;;;;;5005361;28;5121;-58
2023/09/13 05:59:21;;;;;;;;;;;;;;;;;;4984726;28;5493;-58
2023/09/13 06:01:47;;;;;;;;;;;;;;;;;;5004516;28;3405;-58
2023/09/13 06:04:12;;;;;;;;;;;;;;;;;;5001234;28;5529;-58
2023/09/13 06:06:37;;;;;;;;;;;;;;;;;;4998516;28;4743;-58
2023/09/13 06:09:05;;;;;;;;;;;;;;;;;;5001464;28;5105;-58
2023/09/13 06:11:31;;;;;;;;;;;;;;;;;;5007051;28;5045;-58
2023/09/13 06:13:56;;;;;;;;;;;;;;;;;;5001374;28;4659;-58
2023/09/13 06:16:22;;;;;;;;;;;;;;;;;;5020726;28;3377;-58
2023/09/13 06:18:48;;;;;;;;;;;;;;;;;;5003935;28;4920;-59
2023/09/13 06:21:14;;;;;;;;;;;;;;;;;;5002779;28;5067;-59
2023/09/13 06:23:39;;;;;;;;;;;;;;;;;;5000354;28;5101;-58
2023/09/13 06:26:05;;;;;;;;;;;;;;;;;;5004840;28;4744;-58
2023/09/13 06:28:30;;;;;;;;;;;;;;;;;;5001057;28;3828;-58
2023/09/13 06:30:56;;;;;;;;;;;;;;;;;;5019047;28;5168;-58
2023/09/13 06:33:21;;;;;;;;;;;;;;;;;;5000251;28;4497;-57
2023/09/13 06:35:46;;;;;;;;;;;;;;;;;;5001035;28;5205;-59
2023/09/13 06:38:13;;;;;;;;;;;;;;;;;;4990946;28;4737;-58
2023/09/13 06:40:39;;;;;;;;;;;;;;;;;;5003463;28;3324;-58
2023/09/13 06:43:04;;;;;;;;;;;;;;;;;;5005666;28;4469;-58
2023/09/13 06:45:29;;;;;;;;;;;;;;;;;;5008443;28;5025;-58
2023/09/13 06:47:55;;;;;;;;;;;;;;;;;;5000661;28;5158;-58
2023/09/13 06:50:20;;;;;;;;;;;;;;;;;;5000599;28;5026;-57
2023/09/13 06:52:45;;;;;;;;;;;;;;;;;;5002825;28;3503;-58
2023/09/13 06:55:11;;;;;;;;;;;;;;;;;;5005245;28;5172;-58
2023/09/13 06:57:36;;;;;;;;;;;;;;;;;;5003666;28;4475;-58
2023/09/13 07:00:03;;;;;;;;;;;;;;;;;;5004895;28;4704;-58
2023/09/13 07:02:28;;;;;;;;;;;;;;;;;;5000230;28;5030;-58
2023/09/13 07:04:53;;;;;;;;;;;;;;;;;;5003188;28;4950;-57
2023/09/13 07:07:19;;;;;;;;;;;;;;;;;;5001491;28;3438;-58
2023/09/13 07:09:45;;;;;;;;;;;;;;;;;;5005529;28;4831;-58
2023/09/13 07:12:10;;;;;;;;;;;;;;;;;;5002580;28;5102;-61
2023/09/13 07:14:35;;;;;;;;;;;;;;;;;;5004323;28;4447;-61
2023/09/13 07:17:01;;;;;;;;;;;;;;;;;;5002475;28;4518;-58
2023/09/13 07:19:26;;;;;;;;;;;;;;;;;;5006203;28;1994;-58
2023/09/13 07:21:51;;;;;;;;;;;;;;;;;;4998729;28;4926;-58
2023/09/13 07:24:16;;;;;;;;;;;;;;;;;;5006084;28;4661;-58
2023/09/13 07:26:42;;;;;;;;;;;;;;;;;;5003750;28;4632;-59
2023/09/13 07:29:07;;;;;;;;;;;;;;;;;;5006273;28;4471;-58
2023/09/13 07:31:32;;;;;;;;;;;;;;;;;;5018680;28;3146;-58
2023/09/13 07:34:02;;;;;;;;;;;;;;;;;;5004735;28;4950;-58
2023/09/13 07:36:27;;;;;;;;;;;;;;;;;;5004135;28;4471;-58
2023/09/13 07:38:53;;;;;;;;;;;;;;;;;;5006561;28;4656;-57
2023/09/13 07:41:18;;;;;;;;;;;;;;;;;;5007754;28;4887;-57
2023/09/13 07:43:43;;;;;;;;;;;;;;;;;;5008768;28;3015;-57
2023/09/13 07:46:09;;;;;;;;;;;;;;;;;;5007514;28;4434;-57
2023/09/13 07:48:34;;;;;;;;;;;;;;;;;;5009645;28;5121;-57
2023/09/13 07:50:59;;;;;;;;;;;;;;;;;;5009029;28;4574;-57
2023/09/13 07:53:25;;;;;;;;;;;;;;;;;;5001767;28;5248;-57
2023/09/13 07:55:50;;;;;;;;;;;;;;;;;;5008375;28;4885;-57
2023/09/13 07:58:15;;;;;;;;;;;;;;;;;;5006109;28;1306;-60
2023/09/13 08:00:41;;;;;;;;;;;;;;;;;;5003769;28;5125;-58
2023/09/13 08:03:06;;;;;;;;;;;;;;;;;;5008526;28;4461;-58
2023/09/13 08:05:32;;;;;;;;;;;;;;;;;;4995103;28;5299;-63
2023/09/13 08:07:57;;;;;;;;;;;;;;;;;;5006821;28;5062;-62
2023/09/13 08:10:24;;;;;;;;;;;;;;;;;;5001759;28;3399;-60
2023/09/13 08:12:49;;;;;;;;;;;;;;;;;;5006568;28;4977;-61
2023/09/13 08:15:14;;;;;;;;;;;;;;;;;;5007182;28;4836;-62
2023/09/13 08:17:40;;;;;;;;;;;;;;;;;;5006126;28;5288;-62
2023/09/13 08:20:07;;;;;;;;;;;;;;;;;;4997840;28;4703;-64
2023/09/13 08:22:32;;;;;;;;;;;;;;;;;;5002913;28;3327;-62
2023/09/13 08:24:57;;;;;;;;;;;;;;;;;;5006442;28;4600;-62
2023/09/13 08:27:23;;;;;;;;;;;;;;;;;;5004359;28;5082;-61
2023/09/13 08:29:48;;;;;;;;;;;;;;;;;;5006451;28;5039;-60
2023/09/13 08:32:13;;;;;;;;;;;;;;;;;;5004189;28;5094;-60
2023/09/13 08:34:38;;;;;;;;;;;;;;;;;;5006857;28;4846;-67
2023/09/13 08:37:04;;;;;;;;;;;;;;;;;;5000805;28;4919;-68
2023/09/13 08:39:29;;;;;;;;;;;;;;;;;;5004780;28;5008;-69
2023/09/13 08:41:54;;;;;;;;;;;;;;;;;;5003049;28;5196;-69
2023/09/13 08:44:20;;;;;;;;;;;;;;;;;;4995027;28;4568;-71
2023/09/13 08:46:46;;;;;;;;;;;;;;;;;;4987475;28;3269;-70
2023/09/13 08:49:11;;;;;;;;;;;;;;;;;;5004987;28;4450;-67
2023/09/13 08:51:36;;;;;;;;;;;;;;;;;;4998985;28;5098;-67
2023/09/13 08:54:02;;;;;;;;;;;;;;;;;;4999788;28;5083;-65
2023/09/13 08:56:27;;;;;;;;;;;;;;;;;;4988221;28;5131;-65
2023/09/13 08:58:52;;;;;;;;;;;;;;;;;;5018450;28;5116;-66
2023/09/13 09:01:18;;;;;;;;;;;;;;;;;;5004213;28;4034;-67
2023/09/13 09:03:43;;;;;;;;;;;;;;;;;;5019082;28;5103;-67
2023/09/13 09:06:09;;;;;;;;;;;;;;;;;;5009071;28;5114;-69
2023/09/13 09:08:37;;;;;;;;;;;;;;;;;;5004335;28;5142;-66
2023/09/13 09:11:02;;;;;;;;;;;;;;;;;;5016509;28;5065;-67
2023/09/13 09:13:28;;;;;;;;;;;;;;;;;;5004528;28;3383;-68
2023/09/13 09:15:53;;;;;;;;;;;;;;;;;;4990341;28;4713;-69
2023/09/13 09:18:19;;;;;;;;;;;;;;;;;;5016479;28;4973;-69
2023/09/13 09:20:44;;;;;;;;;;;;;;;;;;5005530;28;5222;-69
2023/09/13 09:23:10;;;;;;;;;;;;;;;;;;5001854;28;5039;-69
2023/09/13 09:25:37;;;;;;;;;;;;;;;;;;5018236;28;3318;-67
2023/09/13 09:28:04;;;;;;;;;;;;;;;;;;5014302;28;5276;-69
2023/09/13 09:30:31;;;;;;;;;;;;;;;;;;5004905;28;5079;-69
2023/09/13 09:33:03;;;;;;;;;;;;;;;;;;5001324;28;5295;-69
2023/09/13 09:35:29;;;;;;;;;;;;;;;;;;5002660;28;4850;-70
2023/09/13 09:37:54;;;;;;;;;;;;;;;;;;4999432;28;5190;-69
2023/09/13 09:40:20;;;;;;;;;;;;;;;;;;5000933;28;3316;-74
2023/09/13 09:42:50;;;;;;;;;;;;;;;;;;5002897;28;4681;-72
2023/09/13 09:45:15;;;;;;;;;;;;;;;;;;5015759;28;5108;-70
2023/09/13 09:47:41;;;;;;;;;;;;;;;;;;5003326;28;4972;-70
2023/09/13 09:50:10;;;;;;;;;;;;;;;;;;5001397;28;4924;-65
2023/09/13 09:52:35;;;;;;;;;;;;;;;;;;5017603;28;3322;-64
2023/09/13 09:55:02;;;;;;;;;;;;;;;;;;5002548;28;4994;-68
2023/09/13 09:57:28;;;;;;;;;;;;;;;;;;5001349;28;5045;-67
2023/09/13 09:59:53;;;;;;;;;;;;;;;;;;5003704;28;4811;-67
2023/09/13 10:02:24;;;;;;;;;;;;;;;;;;5003613;28;5268;-65
2023/09/13 10:04:51;;;;;;;;;;;;;;;;;;4999165;28;5113;-67
2023/09/13 10:07:16;;;;;;;;;;;;;;;;;;4995093;28;3491;-67
2023/09/13 10:09:42;;;;;;;;;;;;;;;;;;5006459;28;4969;-67
2023/09/13 10:12:09;;;;;;;;;;;;;;;;;;5005116;28;5017;-67
2023/09/13 10:14:34;;;;;;;;;;;;;;;;;;4998710;28;5096;-67
2023/09/13 10:16:59;;;;;;;;;;;;;;;;;;5002784;28;4464;-67
2023/09/13 10:19:28;;;;;;;;;;;;;;;;;;4984061;28;3313;-67
2023/09/13 10:21:54;;;;;;;;;;;;;;;;;;5001253;28;5040;-66
2023/09/13 10:24:19;;;;;;;;;;;;;;;;;;5002164;28;5048;-67
2023/09/13 10:26:45;;;;;;;;;;;;;;;;;;4983714;28;5026;-67
2023/09/13 10:29:14;;;;;;;;;;;;;;;;;;5004390;28;4631;-67
2023/09/13 10:31:41;;;;;;;;;;;;;;;;;;5005905;28;3328;-66
2023/09/13 10:34:08;;;;;;;;;;;;;;;;;;5013835;28;5127;-66
2023/09/13 10:36:39;;;;;;;;;;;;;;;;;;5001633;28;4489;-67
2023/09/13 10:39:05;;;;;;;;;;;;;;;;;;4997516;28;4491;-67
2023/09/13 10:41:31;;;;;;;;;;;;;;;;;;4986318;28;5001;-67
2023/09/13 10:43:56;;;;;;;;;;;;;;;;;;5005990;28;5045;-66
2023/09/13 10:46:21;;;;;;;;;;;;;;;;;;4989061;28;1243;-66
2023/09/13 10:48:46;;;;;;;;;;;;;;;;;;4996972;28;4491;-67
2023/09/13 10:51:12;;;;;;;;;;;;;;;;;;5020465;28;5209;-66
2023/09/13 10:53:38;;;;;;;;;;;;;;;;;;5006176;28;4951;-66
2023/09/13 10:56:03;;;;;;;;;;;;;;;;;;4999616;28;5087;-68
2023/09/13 10:58:29;;;;;;;;;;;;;;;;;;5005018;28;1344;-67
2023/09/13 11:00:55;;;;;;;;;;;;;;;;;;4999375;28;4589;-67
2023/09/13 11:03:21;;;;;;;;;;;;;;;;;;5017957;28;4528;-66
2023/09/13 11:05:50;;;;;;;;;;;;;;;;;;5007946;28;5019;-66
2023/09/13 11:08:26;;;;;;;;;;;;;;;;;;4991421;28;4559;-65
2023/09/13 11:10:52;;;;;;;;;;;;;;;;;;5001799;28;5111;-68
2023/09/13 11:13:17;;;;;;;;;;;;;;;;;;5007963;28;3332;-65
2023/09/13 11:15:50;;;;;;;;;;;;;;;;;;4993545;28;4982;-67
2023/09/13 11:18:15;;;;;;;;;;;;;;;;;;5001183;28;5025;-66
2023/09/13 11:20:42;;;;;;;;;;;;;;;;;;5008724;28;4540;-67
2023/09/13 11:23:15;;;;;;;;;;;;;;;;;;4991130;28;5127;-66
2023/09/13 11:25:42;;;;;;;;;;;;;;;;;;5006057;28;3461;-66
2023/09/13 11:28:08;;;;;;;;;;;;;;;;;;5001063;28;5083;-67
2023/09/13 11:30:49;;;;;;;;;;;;;;;;;;5005086;28;4570;-68
2023/09/13 11:33:15;;;;;;;;;;;;;;;;;;4988120;28;4685;-66
2023/09/13 11:35:40;;;;;;;;;;;;;;;;;;5003448;28;5655;-65
2023/09/13 11:38:06;;;;;;;;;;;;;;;;;;4999744;28;4960;-67
2023/09/13 11:40:31;;;;;;;;;;;;;;;;;;5001101;28;3489;-67
2023/09/13 11:42:57;;;;;;;;;;;;;;;;;;4994938;28;5029;-59
2023/09/13 11:45:22;;;;;;;;;;;;;;;;;;4996549;28;5259;-59
2023/09/13 11:47:49;;;;;;;;;;;;;;;;;;4986100;28;4829;-59
2023/09/13 11:50:14;;;;;;;;;;;;;;;;;;5021009;28;4494;-59
2023/09/13 11:52:58;;;;;;;;;;;;;;;;;;5008218;28;3978;-59
2023/09/13 11:55:26;;;;;;;;;;;;;;;;;;5006562;28;4559;-59
2023/09/13 11:57:51;;;;;;;;;;;;;;;;;;5000887;28;4508;-59
2023/09/13 12:00:19;;;;;;;;;;;;;;;;;;4999297;28;5125;-58
2023/09/13 12:02:45;;;;;;;;;;;;;;;;;;5000782;28;4501;-58
2023/09/13 12:05:10;;;;;;;;;;;;;;;;;;5010744;28;4924;-58
2023/09/13 12:07:35;;;;;;;;;;;;;;;;;;5001388;28;3407;-58
2023/09/13 12:10:00;;;;;;;;;;;;;;;;;;5005440;28;4388;-57
2023/09/13 12:12:26;;;;;;;;;;;;;;;;;;5002931;28;5036;-58
2023/09/13 12:14:51;;;;;;;;;;;;;;;;;;5018272;28;4463;-58
2023/09/13 12:17:16;;;;;;;;;;;;;;;;;;5003160;28;5117;-58
2023/09/13 12:19:44;;;;;;;;;;;;;;;;;;5006240;28;1918;-58
2023/09/13 12:22:13;;;;;;;;;;;;;;;;;;4997842;28;6294;-58
2023/09/13 12:24:38;;;;;;;;;;;;;;;;;;5006862;28;4517;-58
2023/09/13 12:27:04;;;;;;;;;;;;;;;;;;4996771;28;5095;-58
2023/09/13 12:29:29;;;;;;;;;;;;;;;;;;5003193;28;5123;-58
2023/09/13 12:31:59;;;;;;;;;;;;;;;;;;5001652;28;5003;-58
2023/09/13 12:34:24;;;;;;;;;;;;;;;;;;5007700;28;4973;-58
2023/09/13 12:36:49;;;;;;;;;;;;;;;;;;4999697;28;4983;-58
2023/09/13 12:39:14;;;;;;;;;;;;;;;;;;5001638;28;4942;-58
2023/09/13 12:41:40;;;;;;;;;;;;;;;;;;5003464;28;5141;-58
2023/09/13 12:44:05;;;;;;;;;;;;;;;;;;5007462;28;4535;-58
2023/09/13 12:46:30;;;;;;;;;;;;;;;;;;5003760;28;2203;-58
2023/09/13 12:48:59;;;;;;;;;;;;;;;;;;5002672;28;5030;-58
2023/09/13 12:51:27;;;;;;;;;;;;;;;;;;5001740;28;5148;-58
2023/09/13 12:53:53;;;;;;;;;;;;;;;;;;5000358;28;5282;-58
2023/09/13 12:56:18;;;;;;;;;;;;;;;;;;4994720;28;4722;-58
2023/09/13 12:58:46;;;;;;;;;;;;;;;;;;5004871;28;1326;-58
2023/09/13 13:01:11;;;;;;;;;;;;;;;;;;5007691;28;4781;-58
2023/09/13 13:03:37;;;;;;;;;;;;;;;;;;5007226;28;4974;-58
2023/09/13 13:06:04;;;;;;;;;;;;;;;;;;4992739;28;4926;-58
2023/09/13 13:08:33;;;;;;;;;;;;;;;;;;5020487;28;4462;-58
2023/09/13 13:10:59;;;;;;;;;;;;;;;;;;4996387;28;4940;-58
2023/09/13 13:13:31;;;;;;;;;;;;;;;;;;5005694;28;1158;-58
2023/09/13 13:15:56;;;;;;;;;;;;;;;;;;5001810;28;4437;-57
2023/09/13 13:18:22;;;;;;;;;;;;;;;;;;5003026;28;4538;-59
2023/09/13 13:20:47;;;;;;;;;;;;;;;;;;4996687;28;5277;-57
2023/09/13 13:23:13;;;;;;;;;;;;;;;;;;5000843;28;5058;-57
2023/09/13 13:25:38;;;;;;;;;;;;;;;;;;5001454;28;1419;-57
2023/09/13 13:28:03;;;;;;;;;;;;;;;;;;5003603;28;4436;-56
2023/09/13 13:30:28;;;;;;;;;;;;;;;;;;5003182;28;5161;-56
2023/09/13 13:32:54;;;;;;;;;;;;;;;;;;5005727;28;4634;-56
2023/09/13 13:35:19;;;;;;;;;;;;;;;;;;5002876;28;5422;-58
2023/09/13 13:37:45;;;;;;;;;;;;;;;;;;4984355;28;3482;-57
2023/09/13 13:40:10;;;;;;;;;;;;;;;;;;4997963;28;5065;-59
2023/09/13 13:42:35;;;;;;;;;;;;;;;;;;4995145;28;4676;-59
2023/09/13 13:45:01;;;;;;;;;;;;;;;;;;5007606;28;5588;-59
2023/09/13 13:47:26;;;;;;;;;;;;;;;;;;5002505;28;4772;-59
2023/09/13 13:49:51;;;;;;;;;;;;;;;;;;5001018;28;5103;-59
2023/09/13 13:52:17;;;;;;;;;;;;;;;;;;4984768;28;1454;-59
2023/09/13 13:54:42;;;;;;;;;;;;;;;;;;5004391;28;5095;-57
2023/09/13 13:57:07;;;;;;;;;;;;;;;;;;5003511;28;5063;-59
2023/09/13 13:59:33;;;;;;;;;;;;;;;;;;5003561;28;5160;-59
2023/09/13 14:01:58;;;;;;;;;;;;;;;;;;5006617;28;4463;-57
2023/09/13 14:04:23;;;;;;;;;;;;;;;;;;5002720;28;3112;-57
2023/09/13 14:06:48;;;;;;;;;;;;;;;;;;5004554;28;5031;-58
2023/09/13 14:09:14;;;;;;;;;;;;;;;;;;5005884;28;5060;-58
2023/09/13 14:11:41;;;;;;;;;;;;;;;;;;4999416;28;4696;-58
2023/09/13 14:14:06;;;;;;;;;;;;;;;;;;5004005;28;5017;-58
2023/09/13 14:16:32;;;;;;;;;;;;;;;;;;5006734;28;3300;-58
2023/09/13 14:18:57;;;;;;;;;;;;;;;;;;4987855;28;4621;-58
2023/09/13 14:21:22;;;;;;;;;;;;;;;;;;5000000;28;4581;-58
2023/09/13 14:23:48;;;;;;;;;;;;;;;;;;4998286;28;4899;-58
2023/09/13 14:26:13;;;;;;;;;;;;;;;;;;4996301;28;4999;-58
2023/09/13 14:28:38;;;;;;;;;;;;;;;;;;4999926;28;2543;-57
2023/09/13 14:31:06;;;;;;;;;;;;;;;;;;5000854;28;5087;-58
2023/09/13 14:33:37;;;;;;;;;;;;;;;;;;4992691;28;5027;-63
2023/09/13 14:36:03;;;;;;;;;;;;;;;;;;4997199;28;4950;-64
2023/09/13 14:38:28;;;;;;;;;;;;;;;;;;5003166;28;4970;-67
2023/09/13 14:40:54;;;;;;;;;;;;;;;;;;4997536;28;5585;-64
2023/09/13 14:43:19;;;;;;;;;;;;;;;;;;5013409;28;4088;-69
2023/09/13 14:45:44;;;;;;;;;;;;;;;;;;5001097;28;5135;-69
2023/09/13 14:48:09;;;;;;;;;;;;;;;;;;4988191;28;4636;-63
2023/09/13 14:50:35;;;;;;;;;;;;;;;;;;5001066;28;4520;-63
2023/09/13 14:53:00;;;;;;;;;;;;;;;;;;5007935;28;5284;-63
2023/09/13 14:55:25;;;;;;;;;;;;;;;;;;5004810;28;1229;-67
2023/09/13 14:57:51;;;;;;;;;;;;;;;;;;5011198;28;4723;-70
2023/09/13 15:00:16;;;;;;;;;;;;;;;;;;5003189;28;4445;-69
2023/09/13 15:02:42;;;;;;;;;;;;;;;;;;5008001;28;4585;-74
2023/09/13 15:05:08;;;;;;;;;;;;;;;;;;4997231;28;4871;-71
2023/09/13 15:07:33;;;;;;;;;;;;;;;;;;5008261;28;1205;-72
2023/09/13 15:10:00;;;;;;;;;;;;;;;;;;4988307;28;4861;-69
2023/09/13 15:12:26;;;;;;;;;;;;;;;;;;5009348;28;4481;-72
2023/09/13 15:14:51;;;;;;;;;;;;;;;;;;5010726;28;4571;-62
2023/09/13 15:17:16;;;;;;;;;;;;;;;;;;5007223;28;5009;-60
2023/09/13 15:19:41;;;;;;;;;;;;;;;;;;5005022;28;2974;-60
2023/09/13 15:22:07;;;;;;;;;;;;;;;;;;5001784;28;4992;-61
2023/09/13 15:24:38;;;;;;;;;;;;;;;;;;5000207;28;4565;-61
2023/09/13 15:27:03;;;;;;;;;;;;;;;;;;5007007;28;5210;-59
2023/09/13 15:29:29;;;;;;;;;;;;;;;;;;5007157;28;4672;-59
2023/09/13 15:31:54;;;;;;;;;;;;;;;;;;5000181;28;5036;-60
2023/09/13 15:34:19;;;;;;;;;;;;;;;;;;5001410;28;4727;-60
2023/09/13 15:36:44;;;;;;;;;;;;;;;;;;5003092;28;4673;-59
2023/09/13 15:39:10;;;;;;;;;;;;;;;;;;5007703;28;5024;-60
2023/09/13 15:41:35;;;;;;;;;;;;;;;;;;5000741;28;5190;-59
2023/09/13 15:44:01;;;;;;;;;;;;;;;;;;5001563;28;5149;-60
2023/09/13 15:46:26;;;;;;;;;;;;;;;;;;5005390;28;3346;-60
2023/09/13 15:48:51;;;;;;;;;;;;;;;;;;5005727;28;4610;-59
2023/09/13 15:51:17;;;;;;;;;;;;;;;;;;4999518;28;5085;-60
2023/09/13 15:53:42;;;;;;;;;;;;;;;;;;5007810;28;5017;-60
2023/09/13 15:56:07;;;;;;;;;;;;;;;;;;5004032;28;4885;-60
2023/09/13 15:58:32;;;;;;;;;;;;;;;;;;4988659;28;1213;-60
2023/09/13 16:00:58;;;;;;;;;;;;;;;;;;5006709;28;5146;-60
2023/09/13 16:03:23;;;;;;;;;;;;;;;;;;5010422;28;4612;-60
2023/09/13 16:05:49;;;;;;;;;;;;;;;;;;5002862;28;5206;-59
2023/09/13 16:08:14;;;;;;;;;;;;;;;;;;5012756;28;5363;-73
2023/09/13 16:10:40;;;;;;;;;;;;;;;;;;5011032;28;3439;-67
2023/09/13 16:13:05;;;;;;;;;;;;;;;;;;5005124;28;4882;-66
2023/09/13 16:15:31;;;;;;;;;;;;;;;;;;5004179;28;5122;-70
2023/09/13 16:17:56;;;;;;;;;;;;;;;;;;5001327;28;4837;-68
2023/09/13 16:20:21;;;;;;;;;;;;;;;;;;5003891;28;4579;-70
2023/09/13 16:22:47;;;;;;;;;;;;;;;;;;5007870;28;3333;-67
2023/09/13 16:25:13;;;;;;;;;;;;;;;;;;5001721;28;4577;-67
2023/09/13 16:27:38;;;;;;;;;;;;;;;;;;5004793;28;5446;-63
2023/09/13 16:30:04;;;;;;;;;;;;;;;;;;5004831;28;5112;-69
2023/09/13 16:32:29;;;;;;;;;;;;;;;;;;4989241;28;5015;-71
2023/09/13 16:34:54;;;;;;;;;;;;;;;;;;4999631;28;5204;-68
2023/09/13 16:37:20;;;;;;;;;;;;;;;;;;5004603;28;3426;-66
2023/09/13 16:39:45;;;;;;;;;;;;;;;;;;5000167;28;5037;-64
2023/09/13 16:42:11;;;;;;;;;;;;;;;;;;5002432;28;5042;-64
2023/09/13 16:44:36;;;;;;;;;;;;;;;;;;5000303;28;4517;-64
2023/09/13 16:47:01;;;;;;;;;;;;;;;;;;5001283;28;4660;-65
2023/09/13 16:49:27;;;;;;;;;;;;;;;;;;5002763;28;3522;-63
2023/09/13 16:51:56;;;;;;;;;;;;;;;;;;4998690;28;5621;-63
2023/09/13 16:54:21;;;;;;;;;;;;;;;;;;5005291;28;4806;-63